»·PEaware :: N324AS PABE-PANC

N324AS :: PABE-PANC

FLIGHT INFORMATION

Flight Status: Arrived
Operator: Privately registered:
United States
More flights under this callsign
Pilot: Stacy K. (11621)
Aircraft: Unknown
(DH84)
More flights by this aircraft type
Origin: PABE Bethel
United States
Destination: PANC Stevens Anchorage Intl
United States
More flights between these airports :: More routes between these airports
Route: BET J501 SQA AMOTT4
File this flight plan on PilotEdge
Remarks: RMK / SIMBRIEF
Altitude:
(Current/Filed)
23,000ft
Speed:
(Current/Filed)
328kts
Departed: 02-Jul-19 03:18 PM
Arrived: 02-Jul-19 04:20 PM
Distance/Time
Traveled:
345nm/1:01
Distance/Time
To Go:
Arrived

Flight Plot

Page will automatically refresh every two minutes.

Flight plan parsing failed; only flown route is shown


Map Options




Map Legend


Flown Route
Filed Route
Departure Airport
Arrival Airport
Navaid (VOR, NDB)
Fix

Horizontal Profiles

Position Reports

Time Latitude Longitude Heading Altitude Ground
Speed
02-Jul-19 15:06 60.781601 -161.840960 356 129ft 0kts
02-Jul-19 15:07 60.781601 -161.840960 356 129ft 0kts
02-Jul-19 15:08 60.781601 -161.840960 356 129ft 0kts
02-Jul-19 15:09 60.781601 -161.840960 356 129ft 0kts
02-Jul-19 15:10 60.781601 -161.840960 356 129ft 0kts
02-Jul-19 15:11 60.781319 -161.840952 355 129ft 2kts
02-Jul-19 15:12 60.780950 -161.840127 333 129ft 2kts
02-Jul-19 15:13 60.780558 -161.840314 27 129ft 0kts
02-Jul-19 15:14 60.780562 -161.840310 26 129ft 0kts
02-Jul-19 15:15 60.782320 -161.837779 103 129ft 16kts
02-Jul-19 15:16 60.785218 -161.833537 26 129ft 15kts
02-Jul-19 15:17 60.786671 -161.830306 204 129ft 42kts
02-Jul-19 15:18 60.748259 -161.836045 146 2309ft 206kts
02-Jul-19 15:20 60.755244 -161.712516 46 4689ft 285kts
02-Jul-19 15:21 60.799078 -161.590820 78 6944ft 238kts
02-Jul-19 15:22 60.811096 -161.462945 89 9251ft 242kts
02-Jul-19 15:23 60.822095 -161.303891 86 11262ft 318kts
02-Jul-19 15:24 60.835509 -161.115467 85 13075ft 344kts
02-Jul-19 15:25 60.848972 -160.918122 85 14882ft 354kts
02-Jul-19 15:26 60.862303 -160.718159 85 16677ft 353kts
02-Jul-19 15:27 60.875333 -160.518277 85 18474ft 355kts
02-Jul-19 15:28 60.888220 -160.315295 85 20277ft 360kts
02-Jul-19 15:29 60.900994 -160.108664 86 22078ft 368kts
02-Jul-19 15:30 60.913894 -159.894311 85 23179ft 395kts
02-Jul-19 15:31 60.927489 -159.662244 85 23203ft 419kts
02-Jul-19 15:32 60.941201 -159.421613 85 23212ft 425kts
02-Jul-19 15:33 60.954500 -159.179871 85 23215ft 426kts
02-Jul-19 15:34 60.967385 -158.937263 86 23216ft 426kts
02-Jul-19 15:35 60.979850 -158.694040 86 23220ft 427kts
02-Jul-19 15:36 60.991867 -158.450833 86 23222ft 427kts
02-Jul-19 15:37 61.003453 -158.207260 86 23223ft 427kts
02-Jul-19 15:38 61.014598 -157.963460 86 23227ft 427kts
02-Jul-19 15:39 61.025271 -157.720304 86 23232ft 426kts
02-Jul-19 15:39 61.033856 -157.516979 86 23235ft 426kts
02-Jul-19 15:41 61.045330 -157.232857 86 23236ft 426kts
02-Jul-19 15:41 61.053150 -157.030026 86 23243ft 425kts
02-Jul-19 15:42 61.062152 -156.785922 86 23245ft 425kts
02-Jul-19 15:44 61.072068 -156.501792 86 23242ft 425kts
02-Jul-19 15:44 61.078782 -156.298924 87 23241ft 425kts
02-Jul-19 15:46 61.087672 -156.014625 87 23240ft 424kts
02-Jul-19 15:46 61.093625 -155.812164 87 23239ft 424kts
02-Jul-19 15:47 61.092641 -155.569669 101 23239ft 422kts
02-Jul-19 15:49 61.048657 -155.307068 119 23239ft 418kts
02-Jul-19 15:49 61.040836 -155.108151 90 23240ft 424kts
02-Jul-19 15:50 61.026385 -154.867935 102 23236ft 423kts
02-Jul-19 15:51 61.003123 -154.629717 102 23234ft 423kts
02-Jul-19 15:52 60.979341 -154.392102 102 23231ft 424kts
02-Jul-19 15:53 60.955053 -154.153812 103 23222ft 424kts
02-Jul-19 15:54 60.930416 -153.916626 103 23218ft 425kts
02-Jul-19 15:55 60.905288 -153.679009 103 23214ft 425kts
02-Jul-19 15:56 60.879729 -153.441707 103 23207ft 425kts
02-Jul-19 15:57 60.853765 -153.204901 103 23204ft 425kts
02-Jul-19 15:58 60.827398 -152.968631 103 23201ft 425kts
02-Jul-19 15:59 60.800633 -152.732888 103 23196ft 425kts
02-Jul-19 16:00 60.773381 -152.496920 103 23182ft 426kts
02-Jul-19 16:01 60.745684 -152.261111 104 23178ft 426kts
02-Jul-19 16:02 60.733576 -152.023803 73 22820ft 425kts
02-Jul-19 16:03 60.780821 -151.803739 63 21369ft 421kts
02-Jul-19 16:04 60.827468 -151.588061 63 19507ft 407kts
02-Jul-19 16:05 60.872874 -151.378069 63 17504ft 397kts
02-Jul-19 16:06 60.916895 -151.172403 64 15504ft 389kts
02-Jul-19 16:07 60.964528 -150.976120 56 13507ft 379kts
02-Jul-19 16:08 61.018025 -150.792259 56 11509ft 370kts
02-Jul-19 16:09 61.070106 -150.612852 57 9515ft 358kts
02-Jul-19 16:10 61.132920 -150.459871 42 7510ft 344kts
02-Jul-19 16:11 61.177979 -150.306034 89 5595ft 331kts
02-Jul-19 16:12 61.159076 -150.189736 126 4616ft 260kts
02-Jul-19 16:13 61.099853 -150.151741 204 3218ft 232kts
02-Jul-19 16:14 61.083555 -150.246467 315 2969ft 186kts
02-Jul-19 16:15 61.122376 -150.312880 318 2986ft 189kts
02-Jul-19 16:16 61.168733 -150.294787 69 2977ft 217kts
02-Jul-19 16:17 61.165913 -150.166940 92 2029ft 212kts
02-Jul-19 16:18 61.167016 -150.061321 86 776ft 131kts
02-Jul-19 16:19 61.167808 -150.000775 84 158ft 22kts
02-Jul-19 16:20 61.171843 -149.989305 51 158ft 15kts
02-Jul-19 16:21 61.174924 -149.985449 58 158ft 11kts
02-Jul-19 16:22 61.175040 -149.984413 81 158ft 0kts
02-Jul-19 16:23 61.175040 -149.984413 81 158ft 0kts
02-Jul-19 16:24 61.175040 -149.984413 81 158ft 0kts
02-Jul-19 16:25 61.175040 -149.984413 81 158ft 0kts
02-Jul-19 16:26 61.175034 -149.984491 81 158ft 0kts
02-Jul-19 16:27 61.175040 -149.984492 81 158ft 0kts
02-Jul-19 16:28 61.175040 -149.984492 81 158ft 0kts
02-Jul-19 16:29 61.175040 -149.984492 81 158ft 0kts
02-Jul-19 16:30 61.175040 -149.984492 81 158ft 0kts
02-Jul-19 16:31 61.175040 -149.984492 81 158ft 0kts
02-Jul-19 16:32 61.175040 -149.984492 81 158ft 0kts
02-Jul-19 16:33 61.175040 -149.984492 81 158ft 0kts

Navigation Log

Ident Type
Flight plan parsing failed, navigation log unavailable